sensor_id;sensor_type;location;lat;lon;timestamp;temperature;humidity
19728;DHT22;10015;52.530;13.390;2022-09-16T04:15:39;14.30;99.90
19728;DHT22;10015;52.530;13.390;2022-09-16T04:18:05;14.30;99.90
19728;DHT22;10015;52.530;13.390;2022-09-16T04:20:32;14.20;99.90
19728;DHT22;10015;52.530;13.390;2022-09-16T04:22:58;14.30;99.90
19728;DHT22;10015;52.530;13.390;2022-09-16T04:25:24;14.30;99.90
19728;DHT22;10015;52.530;13.390;2022-09-16T04:27:50;14.30;99.90
19728;DHT22;10015;52.530;13.390;2022-09-16T04:30:17;14.30;99.90
19728;DHT22;10015;52.530;13.390;2022-09-16T04:32:45;14.30;99.90
19728;DHT22;10015;52.530;13.390;2022-09-16T04:35:10;14.20;99.90
19728;DHT22;10015;52.530;13.390;2022-09-16T04:37:36;14.20;99.90
19728;DHT22;10015;52.530;13.390;2022-09-16T04:40:02;14.30;99.90
19728;DHT22;10015;52.530;13.390;2022-09-16T04:42:28;14.20;99.90
19728;DHT22;10015;52.530;13.390;2022-09-16T04:44:54;14.30;99.90
19728;DHT22;10015;52.530;13.390;2022-09-16T04:47:20;14.20;99.90
19728;DHT22;10015;52.530;13.390;2022-09-16T04:49:47;14.30;99.90
19728;DHT22;10015;52.530;13.390;2022-09-16T04:52:13;14.20;99.90
19728;DHT22;10015;52.530;13.390;2022-09-16T04:54:39;14.20;99.90
19728;DHT22;10015;52.530;13.390;2022-09-16T04:57:05;14.20;99.90
19728;DHT22;10015;52.530;13.390;2022-09-16T04:59:31;14.20;99.90
19728;DHT22;10015;52.530;13.390;2022-09-16T05:01:57;14.20;99.90
19728;DHT22;10015;52.530;13.390;2022-09-16T05:04:22;14.10;99.90
19728;DHT22;10015;52.530;13.390;2022-09-16T05:06:48;14.10;99.90
19728;DHT22;10015;52.530;13.390;2022-09-16T05:09:14;14.20;99.90
19728;DHT22;10015;52.530;13.390;2022-09-16T05:11:40;14.10;99.90
19728;DHT22;10015;52.530;13.390;2022-09-16T05:14:17;14.20;99.90
19728;DHT22;10015;52.530;13.390;2022-09-16T05:16:43;14.20;99.90
19728;DHT22;10015;52.530;13.390;2022-09-16T05:19:11;14.20;99.90
19728;DHT22;10015;52.530;13.390;2022-09-16T05:21:38;14.30;99.90
19728;DHT22;10015;52.530;13.390;2022-09-16T05:24:06;14.30;99.90
19728;DHT22;10015;52.530;13.390;2022-09-16T05:26:35;14.30;99.90
19728;DHT22;10015;52.530;13.390;2022-09-16T05:29:04;14.10;99.90
19728;DHT22;10015;52.530;13.390;2022-09-16T05:31:33;14.10;99.90
19728;DHT22;10015;52.530;13.390;2022-09-16T05:34:10;14.00;99.90
19728;DHT22;10015;52.530;13.390;2022-09-16T05:36:38;14.10;99.90
19728;DHT22;10015;52.530;13.390;2022-09-16T05:39:05;14.10;99.90
19728;DHT22;10015;52.530;13.390;2022-09-16T05:41:31;14.10;99.90
19728;DHT22;10015;52.530;13.390;2022-09-16T05:43:58;14.20;99.90
19728;DHT22;10015;52.530;13.390;2022-09-16T05:46:26;14.20;99.90
19728;DHT22;10015;52.530;13.390;2022-09-16T05:48:52;14.30;99.90
19728;DHT22;10015;52.530;13.390;2022-09-16T05:51:20;14.30;99.90
19728;DHT22;10015;52.530;13.390;2022-09-16T05:53:47;14.30;99.90
19728;DHT22;10015;52.530;13.390;2022-09-16T05:56:19;14.30;99.90
19728;DHT22;10015;52.530;13.390;2022-09-16T05:58:46;14.30;99.90
19728;DHT22;10015;52.530;13.390;2022-09-16T06:01:15;14.20;99.90
19728;DHT22;10015;52.530;13.390;2022-09-16T06:03:43;14.30;99.90
19728;DHT22;10015;52.530;13.390;2022-09-16T06:08:44;14.60;99.90
19728;DHT22;10015;52.530;13.390;2022-09-16T06:11:11;14.60;99.90
19728;DHT22;10015;52.530;13.390;2022-09-16T06:13:37;14.70;99.90
19728;DHT22;10015;52.530;13.390;2022-09-16T06:16:05;14.80;99.90
19728;DHT22;10015;52.530;13.390;2022-09-16T06:18:33;14.70;99.90
19728;DHT22;10015;52.530;13.390;2022-09-16T06:21:09;14.80;99.90
19728;DHT22;10015;52.530;13.390;2022-09-16T06:23:37;14.80;99.90
19728;DHT22;10015;52.530;13.390;2022-09-16T06:26:10;14.60;99.90
19728;DHT22;10015;52.530;13.390;2022-09-16T06:28:36;14.60;99.90
19728;DHT22;10015;52.530;13.390;2022-09-16T06:31:21;14.60;99.90
19728;DHT22;10015;52.530;13.390;2022-09-16T06:33:48;14.60;99.90
19728;DHT22;10015;52.530;13.390;2022-09-16T06:36:19;14.70;99.90
19728;DHT22;10015;52.530;13.390;2022-09-16T06:38:47;14.80;99.90
19728;DHT22;10015;52.530;13.390;2022-09-16T06:41:14;14.80;99.90
19728;DHT22;10015;52.530;13.390;2022-09-16T06:43:42;14.70;99.90
19728;DHT22;10015;52.530;13.390;2022-09-16T06:46:13;14.70;99.90
19728;DHT22;10015;52.530;13.390;2022-09-16T06:48:45;14.80;99.90
19728;DHT22;10015;52.530;13.390;2022-09-16T06:51:14;14.90;99.90
19728;DHT22;10015;52.530;13.390;2022-09-16T06:53:41;15.00;99.90
19728;DHT22;10015;52.530;13.390;2022-09-16T06:56:10;15.10;99.90
19728;DHT22;10015;52.530;13.390;2022-09-16T06:58:39;15.20;99.90
19728;DHT22;10015;52.530;13.390;2022-09-16T07:01:11;15.40;99.90
19728;DHT22;10015;52.530;13.390;2022-09-16T07:03:39;15.50;99.90
19728;DHT22;10015;52.530;13.390;2022-09-16T07:06:06;15.70;99.90
19728;DHT22;10015;52.530;13.390;2022-09-16T07:08:34;15.80;99.90
19728;DHT22;10015;52.530;13.390;2022-09-16T07:11:12;15.90;99.90
19728;DHT22;10015;52.530;13.390;2022-09-16T07:13:39;16.00;99.90
19728;DHT22;10015;52.530;13.390;2022-09-16T07:16:16;15.90;99.90
19728;DHT22;10015;52.530;13.390;2022-09-16T07:18:43;15.90;99.90
19728;DHT22;10015;52.530;13.390;2022-09-16T07:21:15;15.90;99.90
19728;DHT22;10015;52.530;13.390;2022-09-16T07:23:42;15.80;99.90
19728;DHT22;10015;52.530;13.390;2022-09-16T07:26:18;15.70;99.90
19728;DHT22;10015;52.530;13.390;2022-09-16T07:28:46;15.80;99.90
19728;DHT22;10015;52.530;13.390;2022-09-16T07:31:18;15.90;99.90
19728;DHT22;10015;52.530;13.390;2022-09-16T07:33:47;16.50;99.90
19728;DHT22;10015;52.530;13.390;2022-09-16T07:36:16;17.20;99.90
19728;DHT22;10015;52.530;13.390;2022-09-16T07:38:42;17.70;99.90
19728;DHT22;10015;52.530;13.390;2022-09-16T07:41:19;18.20;99.90
19728;DHT22;10015;52.530;13.390;2022-09-16T07:43:46;18.60;99.90
19728;DHT22;10015;52.530;13.390;2022-09-16T07:46:14;18.80;99.90
19728;DHT22;10015;52.530;13.390;2022-09-16T07:48:45;18.90;99.90
19728;DHT22;10015;52.530;13.390;2022-09-16T07:51:13;19.00;99.90
19728;DHT22;10015;52.530;13.390;2022-09-16T07:53:40;19.20;99.90
19728;DHT22;10015;52.530;13.390;2022-09-16T07:56:08;19.50;99.90
19728;DHT22;10015;52.530;13.390;2022-09-16T07:58:35;19.70;99.90
19728;DHT22;10015;52.530;13.390;2022-09-16T08:01:03;19.90;99.90
19728;DHT22;10015;52.530;13.390;2022-09-16T08:03:31;20.00;99.90
19728;DHT22;10015;52.530;13.390;2022-09-16T08:06:05;20.00;99.90
19728;DHT22;10015;52.530;13.390;2022-09-16T08:08:32;19.90;99.90
19728;DHT22;10015;52.530;13.390;2022-09-16T08:10:59;19.80;99.90
19728;DHT22;10015;52.530;13.390;2022-09-16T08:13:28;19.70;99.90
19728;DHT22;10015;52.530;13.390;2022-09-16T08:15:59;19.50;99.90
19728;DHT22;10015;52.530;13.390;2022-09-16T08:18:26;19.50;99.90
19728;DHT22;10015;52.530;13.390;2022-09-16T08:20:52;19.20;99.90
19728;DHT22;10015;52.530;13.390;2022-09-16T08:23:18;19.10;99.90
19728;DHT22;10015;52.530;13.390;2022-09-16T08:25:45;18.80;99.90
19728;DHT22;10015;52.530;13.390;2022-09-16T08:28:15;18.80;99.90
19728;DHT22;10015;52.530;13.390;2022-09-16T08:30:43;18.50;99.90
19728;DHT22;10015;52.530;13.390;2022-09-16T08:33:09;18.40;99.90
19728;DHT22;10015;52.530;13.390;2022-09-16T08:35:35;18.40;99.90
19728;DHT22;10015;52.530;13.390;2022-09-16T08:38:01;18.40;99.90
19728;DHT22;10015;52.530;13.390;2022-09-16T08:40:32;18.20;99.90
19728;DHT22;10015;52.530;13.390;2022-09-16T08:45:53;18.10;99.90
19728;DHT22;10015;52.530;13.390;2022-09-16T08:48:54;18.10;99.90
19728;DHT22;10015;52.530;13.390;2022-09-16T08:51:16;18.20;99.90
19728;DHT22;10015;52.530;13.390;2022-09-16T08:53:55;18.40;99.90
19728;DHT22;10015;52.530;13.390;2022-09-16T08:56:24;18.60;99.90
19728;DHT22;10015;52.530;13.390;2022-09-16T08:58:54;18.60;99.90
19728;DHT22;10015;52.530;13.390;2022-09-16T09:04:16;18.70;99.90
19728;DHT22;10015;52.530;13.390;2022-09-16T09:07:05;18.50;99.90
19728;DHT22;10015;52.530;13.390;2022-09-16T09:09:56;18.50;99.90
19728;DHT22;10015;52.530;13.390;2022-09-16T09:12:48;18.40;99.90
19728;DHT22;10015;52.530;13.390;2022-09-16T09:15:25;18.30;99.90
19728;DHT22;10015;52.530;13.390;2022-09-16T09:26:02;18.30;99.90
19728;DHT22;10015;52.530;13.390;2022-09-16T09:28:43;18.60;99.90
19728;DHT22;10015;52.530;13.390;2022-09-16T09:39:59;19.50;99.90
19728;DHT22;10015;52.530;13.390;2022-09-16T09:45:37;19.80;99.90
19728;DHT22;10015;52.530;13.390;2022-09-16T09:50:43;19.80;99.90
19728;DHT22;10015;52.530;13.390;2022-09-16T09:53:24;19.50;99.90
19728;DHT22;10015;52.530;13.390;2022-09-16T09:56:11;19.40;99.90
19728;DHT22;10015;52.530;13.390;2022-09-16T10:01:38;18.60;99.90
19728;DHT22;10015;52.530;13.390;2022-09-16T10:04:13;18.50;99.90
19728;DHT22;10015;52.530;13.390;2022-09-16T10:06:41;18.40;99.90
19728;DHT22;10015;52.530;13.390;2022-09-16T10:09:10;18.40;99.90
19728;DHT22;10015;52.530;13.390;2022-09-16T10:11:49;18.40;99.90
19728;DHT22;10015;52.530;13.390;2022-09-16T10:14:32;18.60;99.90
19728;DHT22;10015;52.530;13.390;2022-09-16T10:17:01;18.90;99.90
19728;DHT22;10015;52.530;13.390;2022-09-16T10:19:30;19.30;99.90
19728;DHT22;10015;52.530;13.390;2022-09-16T10:22:27;19.40;99.90
19728;DHT22;10015;52.530;13.390;2022-09-16T10:25:02;19.60;99.90
19728;DHT22;10015;52.530;13.390;2022-09-16T10:27:33;19.50;99.90
19728;DHT22;10015;52.530;13.390;2022-09-16T10:30:05;19.50;99.90
19728;DHT22;10015;52.530;13.390;2022-09-16T10:32:37;19.40;99.90
19728;DHT22;10015;52.530;13.390;2022-09-16T10:35:08;19.20;99.90
19728;DHT22;10015;52.530;13.390;2022-09-16T10:37:35;19.10;99.90
19728;DHT22;10015;52.530;13.390;2022-09-16T10:40:02;19.20;99.90
19728;DHT22;10015;52.530;13.390;2022-09-16T10:42:31;19.10;99.90
19728;DHT22;10015;52.530;13.390;2022-09-16T10:45:29;19.20;99.90
19728;DHT22;10015;52.530;13.390;2022-09-16T10:48:13;19.30;99.90
19728;DHT22;10015;52.530;13.390;2022-09-16T10:51:03;19.10;99.90
19728;DHT22;10015;52.530;13.390;2022-09-16T10:56:01;19.50;99.90
19728;DHT22;10015;52.530;13.390;2022-09-16T10:58:28;19.50;99.90
19728;DHT22;10015;52.530;13.390;2022-09-16T11:04:58;20.00;99.90
19728;DHT22;10015;52.530;13.390;2022-09-16T11:20:41;20.60;99.90
19728;DHT22;10015;52.530;13.390;2022-09-16T11:23:32;20.30;99.90
19728;DHT22;10015;52.530;13.390;2022-09-16T11:31:52;19.40;99.90
19728;DHT22;10015;52.530;13.390;2022-09-16T11:34:42;19.40;99.90
19728;DHT22;10015;52.530;13.390;2022-09-16T11:37:41;19.20;99.90
19728;DHT22;10015;52.530;13.390;2022-09-16T11:43:00;18.80;99.90
19728;DHT22;10015;52.530;13.390;2022-09-16T11:48:11;19.10;99.90
19728;DHT22;10015;52.530;13.390;2022-09-16T11:53:56;19.70;99.90
19728;DHT22;10015;52.530;13.390;2022-09-16T11:56:36;19.60;99.90
19728;DHT22;10015;52.530;13.390;2022-09-16T11:59:29;19.50;99.90
19728;DHT22;10015;52.530;13.390;2022-09-16T12:05:02;19.30;99.90
19728;DHT22;10015;52.530;13.390;2022-09-16T12:07:52;19.20;99.90
19728;DHT22;10015;52.530;13.390;2022-09-16T12:10:53;19.00;99.90
19728;DHT22;10015;52.530;13.390;2022-09-16T12:13:36;19.10;99.90
19728;DHT22;10015;52.530;13.390;2022-09-16T12:16:08;19.50;99.90
19728;DHT22;10015;52.530;13.390;2022-09-16T12:18:50;19.70;99.90
19728;DHT22;10015;52.530;13.390;2022-09-16T12:23:52;20.40;99.90
19728;DHT22;10015;52.530;13.390;2022-09-16T12:26:24;20.60;99.90
19728;DHT22;10015;52.530;13.390;2022-09-16T12:29:15;20.50;99.90
19728;DHT22;10015;52.530;13.390;2022-09-16T12:32:07;20.40;99.90
19728;DHT22;10015;52.530;13.390;2022-09-16T12:34:49;20.50;99.90
19728;DHT22;10015;52.530;13.390;2022-09-16T12:37:48;20.40;99.90
19728;DHT22;10015;52.530;13.390;2022-09-16T12:49:09;19.60;99.90
19728;DHT22;10015;52.530;13.390;2022-09-16T12:58:10;19.30;99.90
19728;DHT22;10015;52.530;13.390;2022-09-16T13:00:52;19.50;99.90
19728;DHT22;10015;52.530;13.390;2022-09-16T13:03:22;19.80;99.90
19728;DHT22;10015;52.530;13.390;2022-09-16T13:05:52;19.90;99.90
19728;DHT22;10015;52.530;13.390;2022-09-16T13:08:24;20.00;99.90
19728;DHT22;10015;52.530;13.390;2022-09-16T13:10:59;20.10;99.90
19728;DHT22;10015;52.530;13.390;2022-09-16T13:13:39;19.90;99.90
19728;DHT22;10015;52.530;13.390;2022-09-16T13:16:08;20.00;99.90
19728;DHT22;10015;52.530;13.390;2022-09-16T13:18:49;20.10;99.90
19728;DHT22;10015;52.530;13.390;2022-09-16T13:21:27;20.20;99.90
19728;DHT22;10015;52.530;13.390;2022-09-16T13:26:24;20.30;99.90
19728;DHT22;10015;52.530;13.390;2022-09-16T13:28:50;20.40;99.90
19728;DHT22;10015;52.530;13.390;2022-09-16T13:31:19;20.50;99.90
19728;DHT22;10015;52.530;13.390;2022-09-16T13:34:09;20.40;99.90
19728;DHT22;10015;52.530;13.390;2022-09-16T13:36:39;20.30;99.90
19728;DHT22;10015;52.530;13.390;2022-09-16T13:39:11;20.40;99.90
19728;DHT22;10015;52.530;13.390;2022-09-16T13:54:54;20.30;99.90
19728;DHT22;10015;52.530;13.390;2022-09-16T14:13:48;20.10;99.90
19728;DHT22;10015;52.530;13.390;2022-09-16T14:16:27;20.10;99.90
19728;DHT22;10015;52.530;13.390;2022-09-16T14:21:44;20.00;99.60
19728;DHT22;10015;52.530;13.390;2022-09-16T14:26:55;20.10;99.30
19728;DHT22;10015;52.530;13.390;2022-09-16T14:29:23;20.10;99.20
19728;DHT22;10015;52.530;13.390;2022-09-16T14:31:52;20.20;99.60
19728;DHT22;10015;52.530;13.390;2022-09-16T14:34:33;20.00;98.30
19728;DHT22;10015;52.530;13.390;2022-09-16T14:37:01;20.00;98.10
19728;DHT22;10015;52.530;13.390;2022-09-16T14:39:29;19.80;97.60
19728;DHT22;10015;52.530;13.390;2022-09-16T14:42:01;19.80;97.70
19728;DHT22;10015;52.530;13.390;2022-09-16T14:47:23;19.70;97.40
19728;DHT22;10015;52.530;13.390;2022-09-16T14:49:56;19.70;97.40
19728;DHT22;10015;52.530;13.390;2022-09-16T14:52:28;19.60;97.40
19728;DHT22;10015;52.530;13.390;2022-09-16T14:54:58;19.50;97.10
19728;DHT22;10015;52.530;13.390;2022-09-16T14:57:26;19.50;96.90
19728;DHT22;10015;52.530;13.390;2022-09-16T14:59:55;19.20;96.20
19728;DHT22;10015;52.530;13.390;2022-09-16T15:05:33;19.20;96.50
19728;DHT22;10015;52.530;13.390;2022-09-16T15:08:07;19.30;97.10
19728;DHT22;10015;52.530;13.390;2022-09-16T15:10:35;19.20;97.20
19728;DHT22;10015;52.530;13.390;2022-09-16T15:13:04;19.20;97.10
19728;DHT22;10015;52.530;13.390;2022-09-16T15:15:35;19.20;97.10
19728;DHT22;10015;52.530;13.390;2022-09-16T15:18:07;19.10;97.50
19728;DHT22;10015;52.530;13.390;2022-09-16T15:20:37;19.00;97.60
19728;DHT22;10015;52.530;13.390;2022-09-16T15:23:06;18.90;97.80
19728;DHT22;10015;52.530;13.390;2022-09-16T15:25:33;18.80;98.00
19728;DHT22;10015;52.530;13.390;2022-09-16T15:28:26;18.60;98.20
19728;DHT22;10015;52.530;13.390;2022-09-16T15:30:54;18.60;98.50
19728;DHT22;10015;52.530;13.390;2022-09-16T15:33:40;18.60;98.60
19728;DHT22;10015;52.530;13.390;2022-09-16T15:36:31;18.50;99.00
19728;DHT22;10015;52.530;13.390;2022-09-16T15:38:57;18.50;99.20
19728;DHT22;10015;52.530;13.390;2022-09-16T15:41:23;18.40;99.30
19728;DHT22;10015;52.530;13.390;2022-09-16T15:43:49;18.50;99.40
19728;DHT22;10015;52.530;13.390;2022-09-16T15:46:22;18.50;99.40
19728;DHT22;10015;52.530;13.390;2022-09-16T15:48:51;18.50;99.50
19728;DHT22;10015;52.530;13.390;2022-09-16T15:51:36;18.50;99.80
19728;DHT22;10015;52.530;13.390;2022-09-16T15:57:01;18.60;99.80
19728;DHT22;10015;52.530;13.390;2022-09-16T15:59:36;18.70;99.90
19728;DHT22;10015;52.530;13.390;2022-09-16T16:02:24;18.70;99.90
19728;DHT22;10015;52.530;13.390;2022-09-16T16:05:08;18.60;99.90
19728;DHT22;10015;52.530;13.390;2022-09-16T16:07:39;18.50;99.90
19728;DHT22;10015;52.530;13.390;2022-09-16T16:12:49;18.40;99.90
19728;DHT22;10015;52.530;13.390;2022-09-16T16:15:18;18.40;99.90
19728;DHT22;10015;52.530;13.390;2022-09-16T16:17:46;18.40;99.90
19728;DHT22;10015;52.530;13.390;2022-09-16T16:20:13;18.50;99.90
19728;DHT22;10015;52.530;13.390;2022-09-16T16:22:39;18.40;99.90
19728;DHT22;10015;52.530;13.390;2022-09-16T16:25:06;18.50;99.90
19728;DHT22;10015;52.530;13.390;2022-09-16T16:27:32;18.30;99.90
19728;DHT22;10015;52.530;13.390;2022-09-16T16:29:58;18.40;99.90
19728;DHT22;10015;52.530;13.390;2022-09-16T16:32:24;18.40;99.90
19728;DHT22;10015;52.530;13.390;2022-09-16T16:34:50;18.30;99.90
19728;DHT22;10015;52.530;13.390;2022-09-16T16:37:18;18.30;99.90
19728;DHT22;10015;52.530;13.390;2022-09-16T16:39:44;18.30;99.90
19728;DHT22;10015;52.530;13.390;2022-09-16T16:42:12;18.30;99.90
19728;DHT22;10015;52.530;13.390;2022-09-16T16:44:39;18.30;99.90
19728;DHT22;10015;52.530;13.390;2022-09-16T16:47:06;18.30;99.90
19728;DHT22;10015;52.530;13.390;2022-09-16T16:49:35;18.30;99.90
19728;DHT22;10015;52.530;13.390;2022-09-16T16:52:03;18.10;99.90
19728;DHT22;10015;52.530;13.390;2022-09-16T16:54:31;18.00;99.90
19728;DHT22;10015;52.530;13.390;2022-09-16T16:56:59;18.00;99.90
19728;DHT22;10015;52.530;13.390;2022-09-16T16:59:27;17.90;99.90
19728;DHT22;10015;52.530;13.390;2022-09-16T17:01:54;17.90;99.90
19728;DHT22;10015;52.530;13.390;2022-09-16T17:04:21;17.90;99.90
19728;DHT22;10015;52.530;13.390;2022-09-16T17:06:48;17.70;99.90
19728;DHT22;10015;52.530;13.390;2022-09-16T17:09:15;17.70;99.90
19728;DHT22;10015;52.530;13.390;2022-09-16T17:11:56;17.60;99.90
19728;DHT22;10015;52.530;13.390;2022-09-16T17:14:24;17.60;99.90
19728;DHT22;10015;52.530;13.390;2022-09-16T17:16:51;17.60;99.90
19728;DHT22;10015;52.530;13.390;2022-09-16T17:19:17;17.60;99.90
19728;DHT22;10015;52.530;13.390;2022-09-16T17:21:44;17.50;99.90
19728;DHT22;10015;52.530;13.390;2022-09-16T17:24:11;17.50;99.90
19728;DHT22;10015;52.530;13.390;2022-09-16T17:26:37;17.40;99.90
19728;DHT22;10015;52.530;13.390;2022-09-16T17:29:04;17.50;99.90
19728;DHT22;10015;52.530;13.390;2022-09-16T17:31:32;17.40;99.90
19728;DHT22;10015;52.530;13.390;2022-09-16T17:34:00;17.40;99.90
19728;DHT22;10015;52.530;13.390;2022-09-16T17:36:28;17.40;99.90
19728;DHT22;10015;52.530;13.390;2022-09-16T17:39:07;17.30;99.90
19728;DHT22;10015;52.530;13.390;2022-09-16T17:41:33;17.30;99.90
19728;DHT22;10015;52.530;13.390;2022-09-16T17:44:05;17.20;99.90
19728;DHT22;10015;52.530;13.390;2022-09-16T17:46:31;17.20;99.90
19728;DHT22;10015;52.530;13.390;2022-09-16T17:48:59;17.10;99.90
19728;DHT22;10015;52.530;13.390;2022-09-16T17:51:25;17.00;99.90
19728;DHT22;10015;52.530;13.390;2022-09-16T17:53:51;17.00;99.90
19728;DHT22;10015;52.530;13.390;2022-09-16T17:56:18;17.10;99.90
19728;DHT22;10015;52.530;13.390;2022-09-16T17:58:45;17.00;99.90
19728;DHT22;10015;52.530;13.390;2022-09-16T18:01:13;17.10;99.90
19728;DHT22;10015;52.530;13.390;2022-09-16T18:03:41;17.00;99.90
19728;DHT22;10015;52.530;13.390;2022-09-16T18:06:16;16.90;99.90
19728;DHT22;10015;52.530;13.390;2022-09-16T18:08:43;16.80;99.90
19728;DHT22;10015;52.530;13.390;2022-09-16T18:11:10;16.70;99.90
19728;DHT22;10015;52.530;13.390;2022-09-16T18:13:37;16.70;99.90
19728;DHT22;10015;52.530;13.390;2022-09-16T18:16:15;16.50;99.90
19728;DHT22;10015;52.530;13.390;2022-09-16T18:18:42;16.40;99.90
19728;DHT22;10015;52.530;13.390;2022-09-16T18:21:12;16.30;99.90
19728;DHT22;10015;52.530;13.390;2022-09-16T18:23:43;16.30;99.90
19728;DHT22;10015;52.530;13.390;2022-09-16T18:26:12;16.30;99.90
19728;DHT22;10015;52.530;13.390;2022-09-16T18:28:42;16.30;99.90
19728;DHT22;10015;52.530;13.390;2022-09-16T18:31:10;16.30;99.90
19728;DHT22;10015;52.530;13.390;2022-09-16T18:33:37;16.30;99.90
19728;DHT22;10015;52.530;13.390;2022-09-16T18:36:06;16.10;99.90
19728;DHT22;10015;52.530;13.390;2022-09-16T18:38:33;16.20;99.90
19728;DHT22;10015;52.530;13.390;2022-09-16T18:41:06;16.20;99.90
19728;DHT22;10015;52.530;13.390;2022-09-16T18:43:33;16.00;99.90
19728;DHT22;10015;52.530;13.390;2022-09-16T18:46:24;16.10;99.90
19728;DHT22;10015;52.530;13.390;2022-09-16T18:48:51;16.00;99.90
19728;DHT22;10015;52.530;13.390;2022-09-16T18:51:17;16.10;99.90
19728;DHT22;10015;52.530;13.390;2022-09-16T18:53:44;16.20;99.90
19728;DHT22;10015;52.530;13.390;2022-09-16T18:56:12;16.10;99.90
19728;DHT22;10015;52.530;13.390;2022-09-16T18:58:39;16.00;99.90
19728;DHT22;10015;52.530;13.390;2022-09-16T19:01:26;15.90;99.90
19728;DHT22;10015;52.530;13.390;2022-09-16T19:03:54;15.80;99.90
19728;DHT22;10015;52.530;13.390;2022-09-16T19:06:21;16.00;99.90
19728;DHT22;10015;52.530;13.390;2022-09-16T19:08:47;16.00;99.90
19728;DHT22;10015;52.530;13.390;2022-09-16T19:11:13;16.00;99.90
19728;DHT22;10015;52.530;13.390;2022-09-16T19:13:41;16.10;99.90
19728;DHT22;10015;52.530;13.390;2022-09-16T19:16:09;16.20;99.90
19728;DHT22;10015;52.530;13.390;2022-09-16T19:18:36;16.20;99.90
19728;DHT22;10015;52.530;13.390;2022-09-16T19:21:02;16.20;99.90
19728;DHT22;10015;52.530;13.390;2022-09-16T19:23:28;16.10;99.90
19728;DHT22;10015;52.530;13.390;2022-09-16T19:26:00;16.20;99.90
19728;DHT22;10015;52.530;13.390;2022-09-16T19:28:29;16.30;99.90
19728;DHT22;10015;52.530;13.390;2022-09-16T19:31:03;16.20;99.90
19728;DHT22;10015;52.530;13.390;2022-09-16T19:33:30;16.20;99.90
19728;DHT22;10015;52.530;13.390;2022-09-16T19:35:57;16.20;99.90
19728;DHT22;10015;52.530;13.390;2022-09-16T19:38:42;16.20;99.90
19728;DHT22;10015;52.530;13.390;2022-09-16T19:41:09;16.10;99.90
19728;DHT22;10015;52.530;13.390;2022-09-16T19:43:36;16.00;99.90
19728;DHT22;10015;52.530;13.390;2022-09-16T19:46:04;15.90;99.90
19728;DHT22;10015;52.530;13.390;2022-09-16T19:48:33;15.90;99.90
19728;DHT22;10015;52.530;13.390;2022-09-16T19:51:03;15.90;99.90
19728;DHT22;10015;52.530;13.390;2022-09-16T19:53:29;15.70;99.90
19728;DHT22;10015;52.530;13.390;2022-09-16T19:56:04;15.70;99.90
19728;DHT22;10015;52.530;13.390;2022-09-16T19:58:32;15.60;99.90
19728;DHT22;10015;52.530;13.390;2022-09-16T20:01:01;15.70;99.90
19728;DHT22;10015;52.530;13.390;2022-09-16T20:03:32;15.70;99.90
19728;DHT22;10015;52.530;13.390;2022-09-16T20:06:08;15.70;99.90
19728;DHT22;10015;52.530;13.390;2022-09-16T20:08:36;15.70;99.90
19728;DHT22;10015;52.530;13.390;2022-09-16T20:11:14;15.70;99.90
19728;DHT22;10015;52.530;13.390;2022-09-16T20:13:52;15.60;99.90
19728;DHT22;10015;52.530;13.390;2022-09-16T20:16:20;15.50;99.90
19728;DHT22;10015;52.530;13.390;2022-09-16T20:18:46;15.40;99.90
19728;DHT22;10015;52.530;13.390;2022-09-16T20:21:16;15.40;99.90
19728;DHT22;10015;52.530;13.390;2022-09-16T20:23:44;15.40;99.90
19728;DHT22;10015;52.530;13.390;2022-09-16T20:26:12;15.30;99.90
19728;DHT22;10015;52.530;13.390;2022-09-16T20:28:42;15.20;99.90
19728;DHT22;10015;52.530;13.390;2022-09-16T20:31:10;15.10;99.90
19728;DHT22;10015;52.530;13.390;2022-09-16T20:33:37;14.90;99.90
19728;DHT22;10015;52.530;13.390;2022-09-16T20:36:08;14.70;99.90
19728;DHT22;10015;52.530;13.390;2022-09-16T20:38:35;14.60;99.90
19728;DHT22;10015;52.530;13.390;2022-09-16T20:41:16;14.40;99.90
19728;DHT22;10015;52.530;13.390;2022-09-16T20:43:42;14.50;99.90
19728;DHT22;10015;52.530;13.390;2022-09-16T20:46:20;14.60;99.90
19728;DHT22;10015;52.530;13.390;2022-09-16T20:48:46;14.70;99.90
19728;DHT22;10015;52.530;13.390;2022-09-16T20:51:17;14.80;99.90
19728;DHT22;10015;52.530;13.390;2022-09-16T20:56:24;14.60;99.90
19728;DHT22;10015;52.530;13.390;2022-09-16T20:58:50;14.40;99.90
19728;DHT22;10015;52.530;13.390;2022-09-16T21:01:24;14.30;99.90
19728;DHT22;10015;52.530;13.390;2022-09-16T21:03:59;14.30;99.90
19728;DHT22;10015;52.530;13.390;2022-09-16T21:06:26;14.20;99.90
19728;DHT22;10015;52.530;13.390;2022-09-16T21:08:54;14.20;99.90
19728;DHT22;10015;52.530;13.390;2022-09-16T21:11:21;14.30;99.90
19728;DHT22;10015;52.530;13.390;2022-09-16T21:13:55;14.40;99.90
19728;DHT22;10015;52.530;13.390;2022-09-16T21:16:24;14.40;99.90
19728;DHT22;10015;52.530;13.390;2022-09-16T21:18:54;14.40;99.90
19728;DHT22;10015;52.530;13.390;2022-09-16T21:21:21;14.20;99.90
19728;DHT22;10015;52.530;13.390;2022-09-16T21:23:51;14.20;99.90
19728;DHT22;10015;52.530;13.390;2022-09-16T21:26:18;14.20;99.90
19728;DHT22;10015;52.530;13.390;2022-09-16T21:28:51;14.30;99.90
19728;DHT22;10015;52.530;13.390;2022-09-16T21:31:17;14.30;99.90
19728;DHT22;10015;52.530;13.390;2022-09-16T21:33:43;14.30;99.90
19728;DHT22;10015;52.530;13.390;2022-09-16T21:36:11;14.40;99.90
19728;DHT22;10015;52.530;13.390;2022-09-16T21:38:39;14.30;99.90
19728;DHT22;10015;52.530;13.390;2022-09-16T21:41:17;14.30;99.90
19728;DHT22;10015;52.530;13.390;2022-09-16T21:43:45;14.30;99.90
19728;DHT22;10015;52.530;13.390;2022-09-16T21:46:19;14.20;99.90
19728;DHT22;10015;52.530;13.390;2022-09-16T21:48:49;14.10;99.90
19728;DHT22;10015;52.530;13.390;2022-09-16T21:51:17;14.00;99.90
19728;DHT22;10015;52.530;13.390;2022-09-16T21:53:44;14.00;99.90
19728;DHT22;10015;52.530;13.390;2022-09-16T21:56:12;13.90;99.90
19728;DHT22;10015;52.530;13.390;2022-09-16T21:58:39;14.00;99.90
19728;DHT22;10015;52.530;13.390;2022-09-16T22:01:18;14.00;99.90
19728;DHT22;10015;52.530;13.390;2022-09-16T22:03:46;14.10;99.90
19728;DHT22;10015;52.530;13.390;2022-09-16T22:06:15;14.10;99.90
19728;DHT22;10015;52.530;13.390;2022-09-16T22:08:45;14.10;99.90
19728;DHT22;10015;52.530;13.390;2022-09-16T22:11:13;14.10;99.90
19728;DHT22;10015;52.530;13.390;2022-09-16T22:13:40;14.00;99.90